sensor_id;sensor_type;location;lat;lon;timestamp;P1;durP1;ratioP1;P2;durP2;ratioP2
66972;SDS011;53902;51.466;-2.586;2022-11-23T01:02:00;3.42;;;0.70;;
66972;SDS011;53902;51.466;-2.586;2022-11-23T01:08:08;3.78;;;0.80;;
66972;SDS011;53902;51.466;-2.586;2022-11-23T01:20:39;1.00;;;0.40;;
66972;SDS011;53902;51.466;-2.586;2022-11-23T01:30:07;7.25;;;0.88;;
66972;SDS011;53902;51.466;-2.586;2022-11-23T01:43:03;1.33;;;0.57;;
66972;SDS011;53902;51.466;-2.586;2022-11-23T02:01:25;2.65;;;0.52;;
66972;SDS011;53902;51.466;-2.586;2022-11-23T02:03:52;7.30;;;0.75;;
66972;SDS011;53902;51.466;-2.586;2022-11-23T02:29:24;4.00;;;0.70;;
66972;SDS011;53902;51.466;-2.586;2022-11-23T02:40:33;1.15;;;0.43;;
66972;SDS011;53902;51.466;-2.586;2022-11-23T02:43:02;7.53;;;0.98;;
66972;SDS011;53902;51.466;-2.586;2022-11-23T02:48:36;6.95;;;0.63;;
66972;SDS011;53902;51.466;-2.586;2022-11-23T02:51:04;8.25;;;0.70;;
66972;SDS011;53902;51.466;-2.586;2022-11-23T02:53:34;3.75;;;0.50;;
66972;SDS011;53902;51.466;-2.586;2022-11-23T02:56:02;7.22;;;0.80;;
66972;SDS011;53902;51.466;-2.586;2022-11-23T02:58:28;2.97;;;0.60;;
66972;SDS011;53902;51.466;-2.586;2022-11-23T03:00:53;9.18;;;0.93;;
66972;SDS011;53902;51.466;-2.586;2022-11-23T03:03:25;7.63;;;0.60;;
66972;SDS011;53902;51.466;-2.586;2022-11-23T03:08:47;1.55;;;0.30;;
66972;SDS011;53902;51.466;-2.586;2022-11-23T03:11:14;1.45;;;0.43;;
66972;SDS011;53902;51.466;-2.586;2022-11-23T03:13:45;8.77;;;0.50;;
66972;SDS011;53902;51.466;-2.586;2022-11-23T03:22:17;5.28;;;0.50;;
66972;SDS011;53902;51.466;-2.586;2022-11-23T03:24:45;4.15;;;1.20;;
66972;SDS011;53902;51.466;-2.586;2022-11-23T03:27:11;4.13;;;0.57;;
66972;SDS011;53902;51.466;-2.586;2022-11-23T03:32:23;2.38;;;0.60;;
66972;SDS011;53902;51.466;-2.586;2022-11-23T03:34:49;3.25;;;0.60;;
66972;SDS011;53902;51.466;-2.586;2022-11-23T03:37:14;6.82;;;0.60;;
66972;SDS011;53902;51.466;-2.586;2022-11-23T03:39:41;4.57;;;0.55;;
66972;SDS011;53902;51.466;-2.586;2022-11-23T03:42:14;1.92;;;0.60;;
66972;SDS011;53902;51.466;-2.586;2022-11-23T03:44:46;8.75;;;0.70;;
66972;SDS011;53902;51.466;-2.586;2022-11-23T03:47:13;3.72;;;0.55;;
66972;SDS011;53902;51.466;-2.586;2022-11-23T03:49:43;3.90;;;0.95;;
66972;SDS011;53902;51.466;-2.586;2022-11-23T03:52:08;1.58;;;0.35;;
66972;SDS011;53902;51.466;-2.586;2022-11-23T03:54:37;2.83;;;0.50;;
66972;SDS011;53902;51.466;-2.586;2022-11-23T03:57:02;2.42;;;0.52;;
66972;SDS011;53902;51.466;-2.586;2022-11-23T04:02:01;7.13;;;0.75;;
66972;SDS011;53902;51.466;-2.586;2022-11-23T04:04:26;5.53;;;0.52;;
66972;SDS011;53902;51.466;-2.586;2022-11-23T04:06:54;6.20;;;0.60;;
66972;SDS011;53902;51.466;-2.586;2022-11-23T04:12:26;3.38;;;0.70;;
66972;SDS011;53902;51.466;-2.586;2022-11-23T04:14:54;6.97;;;0.70;;
66972;SDS011;53902;51.466;-2.586;2022-11-23T04:17:27;6.47;;;0.93;;
66972;SDS011;53902;51.466;-2.586;2022-11-23T04:19:58;3.45;;;0.68;;
66972;SDS011;53902;51.466;-2.586;2022-11-23T04:22:26;10.65;;;1.00;;
66972;SDS011;53902;51.466;-2.586;2022-11-23T04:24:53;11.63;;;0.95;;
66972;SDS011;53902;51.466;-2.586;2022-11-23T04:27:24;6.80;;;0.73;;
66972;SDS011;53902;51.466;-2.586;2022-11-23T04:29:54;3.50;;;0.65;;
66972;SDS011;53902;51.466;-2.586;2022-11-23T04:32:28;4.18;;;0.75;;
66972;SDS011;53902;51.466;-2.586;2022-11-23T04:34:53;3.17;;;0.43;;
66972;SDS011;53902;51.466;-2.586;2022-11-23T04:37:21;7.18;;;0.77;;
66972;SDS011;53902;51.466;-2.586;2022-11-23T04:39:49;5.75;;;0.93;;
66972;SDS011;53902;51.466;-2.586;2022-11-23T04:42:16;4.32;;;0.65;;
66972;SDS011;53902;51.466;-2.586;2022-11-23T04:44:46;2.25;;;0.50;;
66972;SDS011;53902;51.466;-2.586;2022-11-23T04:47:14;3.20;;;0.80;;
66972;SDS011;53902;51.466;-2.586;2022-11-23T04:58:45;9.00;;;0.95;;
66972;SDS011;53902;51.466;-2.586;2022-11-23T05:03:44;3.42;;;0.43;;
66972;SDS011;53902;51.466;-2.586;2022-11-23T05:06:09;6.25;;;0.50;;
66972;SDS011;53902;51.466;-2.586;2022-11-23T05:08:35;4.60;;;0.50;;
66972;SDS011;53902;51.466;-2.586;2022-11-23T05:11:03;1.95;;;0.68;;
66972;SDS011;53902;51.466;-2.586;2022-11-23T05:13:29;4.15;;;0.80;;
66972;SDS011;53902;51.466;-2.586;2022-11-23T05:15:55;2.05;;;0.50;;
66972;SDS011;53902;51.466;-2.586;2022-11-23T05:21:29;1.45;;;0.50;;
66972;SDS011;53902;51.466;-2.586;2022-11-23T05:23:57;9.38;;;0.75;;
66972;SDS011;53902;51.466;-2.586;2022-11-23T05:26:25;5.80;;;0.80;;
66972;SDS011;53902;51.466;-2.586;2022-11-23T05:41:12;0.73;;;0.25;;
66972;SDS011;53902;51.466;-2.586;2022-11-23T05:43:38;1.45;;;0.50;;
66972;SDS011;53902;51.466;-2.586;2022-11-23T05:51:55;0.90;;;0.40;;
66972;SDS011;53902;51.466;-2.586;2022-11-23T05:54:25;0.50;;;0.50;;
66972;SDS011;53902;51.466;-2.586;2022-11-23T05:59:42;2.25;;;0.73;;
66972;SDS011;53902;51.466;-2.586;2022-11-23T06:02:17;168.90;;;5.47;;
66972;SDS011;53902;51.466;-2.586;2022-11-23T06:04:43;29.33;;;1.63;;
66972;SDS011;53902;51.466;-2.586;2022-11-23T06:07:08;29.63;;;1.42;;
66972;SDS011;53902;51.466;-2.586;2022-11-23T06:09:36;1.17;;;0.68;;
66972;SDS011;53902;51.466;-2.586;2022-11-23T06:12:11;10.43;;;0.65;;
66972;SDS011;53902;51.466;-2.586;2022-11-23T06:14:42;1.98;;;0.52;;
66972;SDS011;53902;51.466;-2.586;2022-11-23T06:17:10;1.58;;;0.50;;
66972;SDS011;53902;51.466;-2.586;2022-11-23T06:19:38;0.70;;;0.30;;
66972;SDS011;53902;51.466;-2.586;2022-11-23T06:24:59;0.55;;;0.40;;
66972;SDS011;53902;51.466;-2.586;2022-11-23T06:27:25;0.25;;;0.25;;
66972;SDS011;53902;51.466;-2.586;2022-11-23T06:29:50;4.97;;;0.57;;
66972;SDS011;53902;51.466;-2.586;2022-11-23T06:32:16;1.75;;;0.50;;
66972;SDS011;53902;51.466;-2.586;2022-11-23T06:34:41;8.50;;;0.75;;
66972;SDS011;53902;51.466;-2.586;2022-11-23T06:37:07;0.20;;;0.20;;
66972;SDS011;53902;51.466;-2.586;2022-11-23T06:39:37;0.45;;;0.20;;
66972;SDS011;53902;51.466;-2.586;2022-11-23T06:42:06;1.77;;;0.30;;
66972;SDS011;53902;51.466;-2.586;2022-11-23T06:44:32;0.20;;;0.20;;
66972;SDS011;53902;51.466;-2.586;2022-11-23T06:46:57;0.20;;;0.20;;
66972;SDS011;53902;51.466;-2.586;2022-11-23T06:49:23;0.22;;;0.22;;
66972;SDS011;53902;51.466;-2.586;2022-11-23T06:51:52;0.60;;;0.30;;
66972;SDS011;53902;51.466;-2.586;2022-11-23T06:54:18;0.20;;;0.20;;
66972;SDS011;53902;51.466;-2.586;2022-11-23T06:56:46;0.13;;;0.13;;
66972;SDS011;53902;51.466;-2.586;2022-11-23T06:59:11;1.98;;;0.52;;
66972;SDS011;53902;51.466;-2.586;2022-11-23T07:01:37;0.30;;;0.30;;
66972;SDS011;53902;51.466;-2.586;2022-11-23T07:04:05;0.20;;;0.20;;
66972;SDS011;53902;51.466;-2.586;2022-11-23T07:06:31;0.10;;;0.10;;
66972;SDS011;53902;51.466;-2.586;2022-11-23T07:08:56;0.10;;;0.10;;
66972;SDS011;53902;51.466;-2.586;2022-11-23T07:11:24;0.60;;;0.10;;
66972;SDS011;53902;51.466;-2.586;2022-11-23T07:13:49;0.13;;;0.13;;
66972;SDS011;53902;51.466;-2.586;2022-11-23T07:16:17;0.20;;;0.20;;
66972;SDS011;53902;51.466;-2.586;2022-11-23T07:18:45;0.75;;;0.40;;
66972;SDS011;53902;51.466;-2.586;2022-11-23T07:21:10;0.98;;;0.40;;
66972;SDS011;53902;51.466;-2.586;2022-11-23T07:23:36;0.10;;;0.10;;
66972;SDS011;53902;51.466;-2.586;2022-11-23T07:26:04;5.35;;;0.45;;
66972;SDS011;53902;51.466;-2.586;2022-11-23T07:28:30;7.22;;;0.52;;
66972;SDS011;53902;51.466;-2.586;2022-11-23T07:30:56;6.93;;;0.68;;
66972;SDS011;53902;51.466;-2.586;2022-11-23T07:33:21;2.90;;;0.40;;
66972;SDS011;53902;51.466;-2.586;2022-11-23T07:35:49;7.65;;;0.75;;
66972;SDS011;53902;51.466;-2.586;2022-11-23T07:38:14;6.20;;;0.65;;
66972;SDS011;53902;51.466;-2.586;2022-11-23T07:40:40;6.88;;;1.40;;
66972;SDS011;53902;51.466;-2.586;2022-11-23T07:43:08;7.00;;;0.82;;
66972;SDS011;53902;51.466;-2.586;2022-11-23T07:45:36;7.70;;;0.73;;
66972;SDS011;53902;51.466;-2.586;2022-11-23T07:48:06;4.43;;;0.43;;
66972;SDS011;53902;51.466;-2.586;2022-11-23T07:50:33;3.25;;;0.57;;
66972;SDS011;53902;51.466;-2.586;2022-11-23T07:53:05;5.30;;;0.68;;
66972;SDS011;53902;51.466;-2.586;2022-11-23T07:55:32;5.10;;;0.77;;
66972;SDS011;53902;51.466;-2.586;2022-11-23T07:57:58;8.32;;;0.70;;
66972;SDS011;53902;51.466;-2.586;2022-11-23T08:00:24;5.30;;;0.63;;
66972;SDS011;53902;51.466;-2.586;2022-11-23T08:02:51;7.38;;;0.95;;
66972;SDS011;53902;51.466;-2.586;2022-11-23T08:05:16;4.85;;;0.93;;
66972;SDS011;53902;51.466;-2.586;2022-11-23T08:07:42;3.03;;;0.60;;
66972;SDS011;53902;51.466;-2.586;2022-11-23T08:10:09;7.30;;;0.75;;
66972;SDS011;53902;51.466;-2.586;2022-11-23T08:12:35;4.05;;;0.70;;
66972;SDS011;53902;51.466;-2.586;2022-11-23T08:15:00;8.43;;;0.90;;
66972;SDS011;53902;51.466;-2.586;2022-11-23T08:17:26;2.47;;;0.43;;
66972;SDS011;53902;51.466;-2.586;2022-11-23T08:19:51;7.07;;;0.75;;
66972;SDS011;53902;51.466;-2.586;2022-11-23T08:22:16;6.82;;;0.60;;
66972;SDS011;53902;51.466;-2.586;2022-11-23T08:24:44;2.20;;;0.40;;
66972;SDS011;53902;51.466;-2.586;2022-11-23T08:27:15;6.75;;;0.70;;
66972;SDS011;53902;51.466;-2.586;2022-11-23T08:29:41;5.65;;;0.75;;
66972;SDS011;53902;51.466;-2.586;2022-11-23T08:32:09;5.40;;;0.65;;
66972;SDS011;53902;51.466;-2.586;2022-11-23T08:34:38;7.65;;;0.88;;
66972;SDS011;53902;51.466;-2.586;2022-11-23T08:37:03;6.85;;;0.70;;
66972;SDS011;53902;51.466;-2.586;2022-11-23T08:39:29;7.82;;;0.93;;
66972;SDS011;53902;51.466;-2.586;2022-11-23T08:41:54;8.15;;;0.75;;
66972;SDS011;53902;51.466;-2.586;2022-11-23T08:44:19;5.80;;;0.80;;
66972;SDS011;53902;51.466;-2.586;2022-11-23T08:46:45;7.95;;;0.47;;
66972;SDS011;53902;51.466;-2.586;2022-11-23T08:49:10;6.00;;;0.57;;
66972;SDS011;53902;51.466;-2.586;2022-11-23T08:51:36;11.35;;;0.75;;
66972;SDS011;53902;51.466;-2.586;2022-11-23T08:54:01;2.75;;;0.60;;
66972;SDS011;53902;51.466;-2.586;2022-11-23T08:56:34;6.88;;;0.90;;
66972;SDS011;53902;51.466;-2.586;2022-11-23T08:58:59;6.78;;;0.65;;
66972;SDS011;53902;51.466;-2.586;2022-11-23T09:01:25;8.32;;;0.90;;
66972;SDS011;53902;51.466;-2.586;2022-11-23T09:03:53;2.47;;;0.38;;
66972;SDS011;53902;51.466;-2.586;2022-11-23T09:06:19;2.45;;;0.80;;
66972;SDS011;53902;51.466;-2.586;2022-11-23T09:08:52;6.72;;;1.30;;
66972;SDS011;53902;51.466;-2.586;2022-11-23T09:11:21;1.13;;;0.30;;
66972;SDS011;53902;51.466;-2.586;2022-11-23T09:13:50;5.75;;;1.13;;
66972;SDS011;53902;51.466;-2.586;2022-11-23T09:16:15;5.82;;;0.82;;
66972;SDS011;53902;51.466;-2.586;2022-11-23T09:18:41;6.80;;;0.80;;
66972;SDS011;53902;51.466;-2.586;2022-11-23T09:21:09;5.00;;;0.60;;
66972;SDS011;53902;51.466;-2.586;2022-11-23T09:23:37;7.95;;;1.10;;
66972;SDS011;53902;51.466;-2.586;2022-11-23T09:26:03;13.35;;;1.10;;
66972;SDS011;53902;51.466;-2.586;2022-11-23T09:28:29;9.10;;;0.90;;
66972;SDS011;53902;51.466;-2.586;2022-11-23T09:30:55;14.95;;;1.17;;
66972;SDS011;53902;51.466;-2.586;2022-11-23T09:33:21;4.13;;;0.60;;
66972;SDS011;53902;51.466;-2.586;2022-11-23T09:35:59;11.57;;;0.98;;
66972;SDS011;53902;51.466;-2.586;2022-11-23T09:38:26;7.63;;;1.45;;
66972;SDS011;53902;51.466;-2.586;2022-11-23T09:40:58;15.18;;;1.42;;
66972;SDS011;53902;51.466;-2.586;2022-11-23T09:46:15;7.25;;;0.95;;
66972;SDS011;53902;51.466;-2.586;2022-11-23T09:51:33;12.02;;;1.20;;
66972;SDS011;53902;51.466;-2.586;2022-11-23T09:54:02;12.35;;;1.15;;
66972;SDS011;53902;51.466;-2.586;2022-11-23T09:56:31;10.05;;;1.42;;
66972;SDS011;53902;51.466;-2.586;2022-11-23T09:59:01;7.78;;;0.93;;
66972;SDS011;53902;51.466;-2.586;2022-11-23T10:01:28;10.68;;;1.02;;
66972;SDS011;53902;51.466;-2.586;2022-11-23T10:03:55;15.70;;;1.53;;
66972;SDS011;53902;51.466;-2.586;2022-11-23T10:06:24;15.10;;;1.90;;
66972;SDS011;53902;51.466;-2.586;2022-11-23T10:19:58;12.82;;;1.25;;
66972;SDS011;53902;51.466;-2.586;2022-11-23T10:22:40;7.18;;;1.42;;
66972;SDS011;53902;51.466;-2.586;2022-11-23T10:25:15;13.85;;;1.73;;
66972;SDS011;53902;51.466;-2.586;2022-11-23T10:27:50;8.73;;;1.30;;
66972;SDS011;53902;51.466;-2.586;2022-11-23T10:30:20;9.75;;;1.10;;
66972;SDS011;53902;51.466;-2.586;2022-11-23T10:32:48;10.55;;;1.67;;
66972;SDS011;53902;51.466;-2.586;2022-11-23T10:35:20;9.15;;;1.27;;
66972;SDS011;53902;51.466;-2.586;2022-11-23T10:37:52;10.23;;;1.00;;
66972;SDS011;53902;51.466;-2.586;2022-11-23T10:40:27;8.52;;;1.35;;
66972;SDS011;53902;51.466;-2.586;2022-11-23T10:42:55;14.65;;;1.13;;
66972;SDS011;53902;51.466;-2.586;2022-11-23T10:45:25;11.93;;;1.13;;
66972;SDS011;53902;51.466;-2.586;2022-11-23T10:47:52;9.73;;;1.23;;
66972;SDS011;53902;51.466;-2.586;2022-11-23T10:50:28;5.15;;;1.30;;
66972;SDS011;53902;51.466;-2.586;2022-11-23T10:55:30;9.85;;;1.38;;
66972;SDS011;53902;51.466;-2.586;2022-11-23T10:57:58;15.60;;;1.42;;
66972;SDS011;53902;51.466;-2.586;2022-11-23T11:00:25;7.22;;;0.98;;
66972;SDS011;53902;51.466;-2.586;2022-11-23T11:02:52;12.02;;;1.73;;
66972;SDS011;53902;51.466;-2.586;2022-11-23T11:08:02;11.80;;;1.38;;
66972;SDS011;53902;51.466;-2.586;2022-11-23T11:10:38;8.00;;;1.45;;
66972;SDS011;53902;51.466;-2.586;2022-11-23T11:16:16;9.85;;;1.00;;
66972;SDS011;53902;51.466;-2.586;2022-11-23T11:18:43;11.50;;;1.27;;
66972;SDS011;53902;51.466;-2.586;2022-11-23T11:24:00;5.25;;;0.73;;
66972;SDS011;53902;51.466;-2.586;2022-11-23T11:26:29;1.88;;;0.55;;
66972;SDS011;53902;51.466;-2.586;2022-11-23T11:29:05;6.80;;;0.85;;
66972;SDS011;53902;51.466;-2.586;2022-11-23T11:31:42;8.52;;;1.00;;
66972;SDS011;53902;51.466;-2.586;2022-11-23T11:36:49;4.13;;;0.63;;
66972;SDS011;53902;51.466;-2.586;2022-11-23T11:39:22;5.13;;;1.10;;
66972;SDS011;53902;51.466;-2.586;2022-11-23T11:41:57;10.27;;;1.17;;
66972;SDS011;53902;51.466;-2.586;2022-11-23T11:44:28;9.70;;;1.30;;
66972;SDS011;53902;51.466;-2.586;2022-11-23T11:47:00;10.23;;;1.20;;
66972;SDS011;53902;51.466;-2.586;2022-11-23T11:49:34;6.57;;;1.10;;
66972;SDS011;53902;51.466;-2.586;2022-11-23T11:57:15;4.05;;;0.90;;
66972;SDS011;53902;51.466;-2.586;2022-11-23T11:59:46;6.35;;;1.05;;
66972;SDS011;53902;51.466;-2.586;2022-11-23T12:04:44;9.10;;;1.10;;
66972;SDS011;53902;51.466;-2.586;2022-11-23T12:10:23;5.57;;;0.80;;
66972;SDS011;53902;51.466;-2.586;2022-11-23T12:15:52;10.43;;;1.20;;
66972;SDS011;53902;51.466;-2.586;2022-11-23T12:18:36;4.03;;;0.80;;
66972;SDS011;53902;51.466;-2.586;2022-11-23T12:21:14;6.55;;;0.93;;
66972;SDS011;53902;51.466;-2.586;2022-11-23T12:23:54;7.22;;;1.00;;
66972;SDS011;53902;51.466;-2.586;2022-11-23T12:29:45;6.72;;;0.98;;
66972;SDS011;53902;51.466;-2.586;2022-11-23T12:38:28;5.00;;;0.90;;
66972;SDS011;53902;51.466;-2.586;2022-11-23T12:50:25;12.65;;;1.40;;
66972;SDS011;53902;51.466;-2.586;2022-11-23T12:58:21;8.32;;;1.08;;
66972;SDS011;53902;51.466;-2.586;2022-11-23T13:03:38;13.82;;;1.40;;
66972;SDS011;53902;51.466;-2.586;2022-11-23T13:18:18;9.25;;;1.35;;
66972;SDS011;53902;51.466;-2.586;2022-11-23T13:21:19;8.57;;;1.20;;
66972;SDS011;53902;51.466;-2.586;2022-11-23T13:24:03;13.48;;;1.80;;
66972;SDS011;53902;51.466;-2.586;2022-11-23T13:38:34;6.93;;;0.88;;
66972;SDS011;53902;51.466;-2.586;2022-11-23T13:41:01;4.65;;;0.90;;
66972;SDS011;53902;51.466;-2.586;2022-11-23T13:43:28;4.40;;;0.82;;
66972;SDS011;53902;51.466;-2.586;2022-11-23T13:49:02;5.45;;;0.98;;
66972;SDS011;53902;51.466;-2.586;2022-11-23T13:51:31;5.70;;;0.50;;
66972;SDS011;53902;51.466;-2.586;2022-11-23T13:56:42;4.47;;;0.68;;
66972;SDS011;53902;51.466;-2.586;2022-11-23T14:15:19;7.15;;;1.00;;
66972;SDS011;53902;51.466;-2.586;2022-11-23T14:20:44;10.27;;;1.50;;
66972;SDS011;53902;51.466;-2.586;2022-11-23T14:33:24;9.60;;;1.67;;
66972;SDS011;53902;51.466;-2.586;2022-11-23T14:41:05;6.33;;;0.90;;
66972;SDS011;53902;51.466;-2.586;2022-11-23T14:43:39;9.30;;;1.05;;
66972;SDS011;53902;51.466;-2.586;2022-11-23T14:46:12;7.88;;;0.88;;
66972;SDS011;53902;51.466;-2.586;2022-11-23T14:48:39;2.80;;;0.70;;
66972;SDS011;53902;51.466;-2.586;2022-11-23T14:51:05;9.05;;;0.90;;
66972;SDS011;53902;51.466;-2.586;2022-11-23T14:53:39;3.58;;;0.70;;
66972;SDS011;53902;51.466;-2.586;2022-11-23T14:56:05;10.50;;;1.00;;
66972;SDS011;53902;51.466;-2.586;2022-11-23T14:58:40;5.57;;;0.80;;
66972;SDS011;53902;51.466;-2.586;2022-11-23T15:01:05;5.45;;;0.80;;
66972;SDS011;53902;51.466;-2.586;2022-11-23T15:03:31;5.57;;;1.35;;
66972;SDS011;53902;51.466;-2.586;2022-11-23T15:06:00;2.60;;;0.63;;
66972;SDS011;53902;51.466;-2.586;2022-11-23T15:08:32;10.05;;;1.10;;
66972;SDS011;53902;51.466;-2.586;2022-11-23T15:11:20;6.15;;;0.93;;
66972;SDS011;53902;51.466;-2.586;2022-11-23T15:13:52;7.47;;;0.93;;
66972;SDS011;53902;51.466;-2.586;2022-11-23T15:16:27;8.77;;;1.23;;
66972;SDS011;53902;51.466;-2.586;2022-11-23T15:18:52;6.60;;;0.88;;
66972;SDS011;53902;51.466;-2.586;2022-11-23T15:21:19;3.47;;;0.95;;
66972;SDS011;53902;51.466;-2.586;2022-11-23T15:23:46;9.63;;;1.20;;
66972;SDS011;53902;51.466;-2.586;2022-11-23T15:26:20;5.72;;;1.13;;
66972;SDS011;53902;51.466;-2.586;2022-11-23T15:28:46;5.22;;;0.88;;
66972;SDS011;53902;51.466;-2.586;2022-11-23T15:31:17;1.77;;;0.80;;
66972;SDS011;53902;51.466;-2.586;2022-11-23T15:33:52;8.93;;;1.00;;
66972;SDS011;53902;51.466;-2.586;2022-11-23T15:36:29;6.18;;;1.20;;
66972;SDS011;53902;51.466;-2.586;2022-11-23T15:38:56;12.57;;;1.48;;
66972;SDS011;53902;51.466;-2.586;2022-11-23T15:41:23;8.90;;;1.38;;
66972;SDS011;53902;51.466;-2.586;2022-11-23T15:43:56;14.30;;;2.13;;
66972;SDS011;53902;51.466;-2.586;2022-11-23T15:46:23;6.53;;;1.38;;
66972;SDS011;53902;51.466;-2.586;2022-11-23T15:48:51;13.38;;;2.05;;
66972;SDS011;53902;51.466;-2.586;2022-11-23T15:51:28;6.72;;;1.25;;
66972;SDS011;53902;51.466;-2.586;2022-11-23T15:53:59;8.90;;;1.10;;
66972;SDS011;53902;51.466;-2.586;2022-11-23T15:56:35;11.25;;;1.27;;
66972;SDS011;53902;51.466;-2.586;2022-11-23T15:59:02;7.10;;;0.90;;
66972;SDS011;53902;51.466;-2.586;2022-11-23T16:01:29;11.75;;;1.65;;
66972;SDS011;53902;51.466;-2.586;2022-11-23T16:03:56;11.63;;;1.65;;
66972;SDS011;53902;51.466;-2.586;2022-11-23T16:06:37;8.20;;;1.38;;
66972;SDS011;53902;51.466;-2.586;2022-11-23T16:11:56;10.15;;;1.33;;
66972;SDS011;53902;51.466;-2.586;2022-11-23T16:14:26;8.23;;;1.17;;
66972;SDS011;53902;51.466;-2.586;2022-11-23T16:17:03;10.30;;;1.15;;
66972;SDS011;53902;51.466;-2.586;2022-11-23T16:19:30;14.88;;;1.70;;
66972;SDS011;53902;51.466;-2.586;2022-11-23T16:21:59;4.45;;;1.20;;
66972;SDS011;53902;51.466;-2.586;2022-11-23T16:24:26;7.35;;;1.67;;
66972;SDS011;53902;51.466;-2.586;2022-11-23T16:26:51;5.30;;;1.50;;
66972;SDS011;53902;51.466;-2.586;2022-11-23T16:29:23;20.30;;;2.30;;
66972;SDS011;53902;51.466;-2.586;2022-11-23T16:31:51;7.63;;;1.25;;
66972;SDS011;53902;51.466;-2.586;2022-11-23T16:34:20;7.50;;;1.40;;
66972;SDS011;53902;51.466;-2.586;2022-11-23T16:36:46;8.13;;;1.20;;
66972;SDS011;53902;51.466;-2.586;2022-11-23T16:39:12;4.15;;;1.20;;
66972;SDS011;53902;51.466;-2.586;2022-11-23T16:41:37;9.80;;;1.55;;
66972;SDS011;53902;51.466;-2.586;2022-11-23T16:44:03;13.45;;;1.73;;
66972;SDS011;53902;51.466;-2.586;2022-11-23T16:46:30;6.28;;;1.80;;
66972;SDS011;53902;51.466;-2.586;2022-11-23T16:48:55;10.98;;;1.73;;
66972;SDS011;53902;51.466;-2.586;2022-11-23T16:51:23;8.88;;;1.80;;
66972;SDS011;53902;51.466;-2.586;2022-11-23T16:53:48;8.35;;;1.60;;
66972;SDS011;53902;51.466;-2.586;2022-11-23T16:56:19;8.68;;;1.75;;
66972;SDS011;53902;51.466;-2.586;2022-11-23T16:58:48;14.77;;;1.55;;
66972;SDS011;53902;51.466;-2.586;2022-11-23T17:01:16;7.95;;;1.50;;
66972;SDS011;53902;51.466;-2.586;2022-11-23T17:03:51;10.82;;;1.92;;
66972;SDS011;53902;51.466;-2.586;2022-11-23T17:06:17;8.30;;;1.90;;
66972;SDS011;53902;51.466;-2.586;2022-11-23T17:08:47;7.43;;;1.73;;
66972;SDS011;53902;51.466;-2.586;2022-11-23T17:11:13;13.90;;;1.98;;
66972;SDS011;53902;51.466;-2.586;2022-11-23T17:16:07;15.55;;;1.95;;
66972;SDS011;53902;51.466;-2.586;2022-11-23T17:18:35;9.93;;;1.38;;
66972;SDS011;53902;51.466;-2.586;2022-11-23T17:21:03;15.13;;;1.88;;
66972;SDS011;53902;51.466;-2.586;2022-11-23T17:23:29;7.93;;;1.80;;
66972;SDS011;53902;51.466;-2.586;2022-11-23T17:25:54;9.02;;;1.40;;
66972;SDS011;53902;51.466;-2.586;2022-11-23T17:28:23;11.40;;;1.63;;
66972;SDS011;53902;51.466;-2.586;2022-11-23T17:30:51;9.88;;;1.52;;
66972;SDS011;53902;51.466;-2.586;2022-11-23T17:36:07;9.35;;;1.73;;
66972;SDS011;53902;51.466;-2.586;2022-11-23T17:38:33;14.20;;;1.85;;
66972;SDS011;53902;51.466;-2.586;2022-11-23T17:43:27;17.87;;;2.53;;
66972;SDS011;53902;51.466;-2.586;2022-11-23T17:49:01;7.50;;;1.35;;
66972;SDS011;53902;51.466;-2.586;2022-11-23T17:51:27;20.27;;;2.83;;
66972;SDS011;53902;51.466;-2.586;2022-11-23T17:53:55;7.00;;;1.83;;
66972;SDS011;53902;51.466;-2.586;2022-11-23T17:56:21;8.27;;;1.92;;
66972;SDS011;53902;51.466;-2.586;2022-11-23T17:58:51;8.20;;;2.20;;
66972;SDS011;53902;51.466;-2.586;2022-11-23T18:01:20;14.60;;;2.67;;
66972;SDS011;53902;51.466;-2.586;2022-11-23T18:03:53;11.90;;;2.08;;
66972;SDS011;53902;51.466;-2.586;2022-11-23T18:06:23;7.68;;;2.03;;
66972;SDS011;53902;51.466;-2.586;2022-11-23T18:08:49;16.40;;;1.95;;
66972;SDS011;53902;51.466;-2.586;2022-11-23T18:11:18;11.13;;;2.08;;
66972;SDS011;53902;51.466;-2.586;2022-11-23T18:13:50;10.40;;;1.67;;
66972;SDS011;53902;51.466;-2.586;2022-11-23T18:16:19;14.10;;;1.42;;
66972;SDS011;53902;51.466;-2.586;2022-11-23T18:18:45;9.50;;;1.27;;
66972;SDS011;53902;51.466;-2.586;2022-11-23T18:21:15;12.25;;;1.42;;
66972;SDS011;53902;51.466;-2.586;2022-11-23T18:23:43;10.48;;;2.03;;
66972;SDS011;53902;51.466;-2.586;2022-11-23T18:26:13;13.88;;;1.77;;
66972;SDS011;53902;51.466;-2.586;2022-11-23T18:28:46;9.65;;;1.80;;
66972;SDS011;53902;51.466;-2.586;2022-11-23T18:31:14;12.83;;;1.83;;
66972;SDS011;53902;51.466;-2.586;2022-11-23T18:33:43;6.55;;;1.02;;
66972;SDS011;53902;51.466;-2.586;2022-11-23T18:36:08;8.50;;;1.40;;
66972;SDS011;53902;51.466;-2.586;2022-11-23T18:38:35;10.10;;;1.67;;
66972;SDS011;53902;51.466;-2.586;2022-11-23T18:41:03;13.23;;;1.42;;
66972;SDS011;53902;51.466;-2.586;2022-11-23T18:43:29;7.22;;;0.90;;
66972;SDS011;53902;51.466;-2.586;2022-11-23T18:45:59;9.23;;;1.75;;
66972;SDS011;53902;51.466;-2.586;2022-11-23T18:48:32;10.27;;;1.85;;
66972;SDS011;53902;51.466;-2.586;2022-11-23T18:50:57;5.88;;;1.15;;
66972;SDS011;53902;51.466;-2.586;2022-11-23T18:53:25;14.40;;;1.45;;
66972;SDS011;53902;51.466;-2.586;2022-11-23T18:55:53;10.48;;;1.75;;
66972;SDS011;53902;51.466;-2.586;2022-11-23T18:58:19;10.75;;;1.40;;
66972;SDS011;53902;51.466;-2.586;2022-11-23T19:00:49;7.20;;;1.23;;
66972;SDS011;53902;51.466;-2.586;2022-11-23T19:03:16;20.92;;;2.40;;
66972;SDS011;53902;51.466;-2.586;2022-11-23T19:08:15;11.70;;;1.77;;
66972;SDS011;53902;51.466;-2.586;2022-11-23T19:10:44;10.45;;;2.00;;
66972;SDS011;53902;51.466;-2.586;2022-11-23T19:13:10;8.38;;;1.20;;
66972;SDS011;53902;51.466;-2.586;2022-11-23T19:15:37;16.88;;;2.03;;
66972;SDS011;53902;51.466;-2.586;2022-11-23T19:20:46;13.20;;;1.70;;
66972;SDS011;53902;51.466;-2.586;2022-11-23T19:23:12;11.25;;;1.70;;
66972;SDS011;53902;51.466;-2.586;2022-11-23T19:25:37;3.78;;;0.93;;
66972;SDS011;53902;51.466;-2.586;2022-11-23T19:28:03;12.10;;;1.95;;
66972;SDS011;53902;51.466;-2.586;2022-11-23T19:30:28;6.60;;;1.77;;
66972;SDS011;53902;51.466;-2.586;2022-11-23T19:32:53;5.63;;;1.23;;
66972;SDS011;53902;51.466;-2.586;2022-11-23T19:35:21;11.02;;;1.33;;
66972;SDS011;53902;51.466;-2.586;2022-11-23T19:37:47;7.85;;;1.90;;
66972;SDS011;53902;51.466;-2.586;2022-11-23T19:40:19;12.70;;;1.60;;
66972;SDS011;53902;51.466;-2.586;2022-11-23T19:42:44;10.93;;;1.55;;
66972;SDS011;53902;51.466;-2.586;2022-11-23T19:45:12;5.38;;;1.30;;
66972;SDS011;53902;51.466;-2.586;2022-11-23T19:47:38;5.15;;;1.35;;
66972;SDS011;53902;51.466;-2.586;2022-11-23T19:50:06;13.77;;;1.52;;
66972;SDS011;53902;51.466;-2.586;2022-11-23T19:52:32;10.48;;;2.22;;
66972;SDS011;53902;51.466;-2.586;2022-11-23T19:54:57;16.50;;;1.73;;
66972;SDS011;53902;51.466;-2.586;2022-11-23T19:57:23;9.20;;;1.90;;
66972;SDS011;53902;51.466;-2.586;2022-11-23T19:59:48;11.65;;;1.70;;
66972;SDS011;53902;51.466;-2.586;2022-11-23T20:02:19;9.52;;;1.65;;
66972;SDS011;53902;51.466;-2.586;2022-11-23T20:04:47;6.93;;;1.25;;
66972;SDS011;53902;51.466;-2.586;2022-11-23T20:07:13;13.07;;;1.35;;
66972;SDS011;53902;51.466;-2.586;2022-11-23T20:09:39;11.55;;;2.05;;
66972;SDS011;53902;51.466;-2.586;2022-11-23T20:12:06;12.88;;;1.65;;
66972;SDS011;53902;51.466;-2.586;2022-11-23T20:14:37;13.65;;;1.52;;
66972;SDS011;53902;51.466;-2.586;2022-11-23T20:17:03;13.73;;;1.75;;
66972;SDS011;53902;51.466;-2.586;2022-11-23T20:19:28;12.90;;;2.05;;
66972;SDS011;53902;51.466;-2.586;2022-11-23T20:21:54;11.13;;;1.30;;
66972;SDS011;53902;51.466;-2.586;2022-11-23T20:24:22;12.32;;;1.75;;
66972;SDS011;53902;51.466;-2.586;2022-11-23T20:26:50;12.30;;;1.70;;
66972;SDS011;53902;51.466;-2.586;2022-11-23T20:31:50;11.60;;;1.30;;
66972;SDS011;53902;51.466;-2.586;2022-11-23T20:34:16;9.38;;;1.63;;